Time;durP1;ratioP1;P1;durP2;ratioP2;P2;SDS_P1;SDS_P2;PMS_P1;PMS_P2;Temp;Humidity;BMP_temperature;BMP_pressure;BME280_temperature;BME280_humidity;BME280_pressure;Samples;Min_cycle;Max_cycle;Signal;HPM_P1;HPM_P2
2023/03/26 00:01:50;;;;;;;4.80;2.40;;;;;;;14.16;50.94;98300.72;7080080;27;20365;-76
2023/03/26 00:05:13;;;;;;;2.60;2.33;;;;;;;14.16;51.69;98308.88;7080828;27;20294;-74
2023/03/26 00:08:35;;;;;;;4.43;2.30;;;;;;;14.35;50.54;98304.13;7080891;27;20295;-75
2023/03/26 00:11:57;;;;;;;3.83;2.27;;;;;;;13.80;52.00;98309.19;7079581;27;20281;-74
2023/03/26 00:15:18;;;;;;;4.27;2.17;;;;;;;14.12;51.11;98296.88;7080838;27;20272;-76
2023/03/26 00:18:42;;;;;;;3.57;1.90;;;;;;;14.11;51.13;98292.50;7080119;28;20205;-75
2023/03/26 00:22:04;;;;;;;3.70;2.00;;;;;;;13.94;51.45;98290.78;7079890;28;20722;-75
2023/03/26 00:25:26;;;;;;;3.53;2.20;;;;;;;14.00;51.30;98308.78;7080206;28;20203;-75
2023/03/26 00:28:49;;;;;;;2.87;1.90;;;;;;;13.72;51.83;98295.16;7080411;28;20252;-74
2023/03/26 00:32:11;;;;;;;5.97;2.27;;;;;;;13.69;52.08;98301.06;7079809;28;20257;-77
2023/03/26 00:35:35;;;;;;;2.13;1.93;;;;;;;13.79;52.00;98309.41;7080431;28;20205;-75
2023/03/26 00:38:57;;;;;;;4.60;2.07;;;;;;;13.80;51.65;98309.19;7080245;28;20661;-76
2023/03/26 00:42:18;;;;;;;4.87;2.10;;;;;;;13.58;52.54;98307.31;7079642;28;20281;-75
2023/03/26 00:45:40;;;;;;;3.20;2.10;;;;;;;13.51;52.34;98291.19;7080177;28;20229;-75
2023/03/26 00:49:02;;;;;;;2.33;2.13;;;;;;;13.44;52.78;98297.75;7080350;28;20259;-76
2023/03/26 00:52:27;;;;;;;4.50;2.10;;;;;;;13.05;53.98;98295.75;7079137;28;20227;-74
2023/03/26 00:55:49;;;;;;;3.20;1.87;;;;;;;12.63;54.82;98284.06;7080483;28;20615;-75
2023/03/26 00:59:11;;;;;;;3.93;2.20;;;;;;;12.62;53.70;98278.91;7080032;27;20225;-75
2023/03/26 01:02:33;;;;;;;4.07;2.43;;;;;;;13.05;53.39;98276.81;7083953;27;20223;-74
2023/03/26 01:06:03;;;;;;;2.03;1.90;;;;;;;12.94;53.92;98258.63;7084967;27;20256;-75
2023/03/26 01:09:32;;;;;;;2.43;2.10;;;;;;;13.02;53.69;98255.59;7084337;27;20264;-75
2023/03/26 01:12:54;;;;;;;2.80;2.33;;;;;;;13.07;53.40;98247.63;7084482;27;20485;-76
2023/03/26 01:16:21;;;;;;;2.37;2.13;;;;;;;13.05;53.61;98249.75;7085085;27;20569;-75
2023/03/26 01:19:47;;;;;;;4.13;2.30;;;;;;;12.87;53.86;98244.41;7084345;27;20208;-75
2023/03/26 01:23:08;;;;;;;3.37;2.20;;;;;;;13.30;53.33;98240.34;7084842;27;20264;-76
2023/03/26 01:26:44;;;;;;;2.27;2.07;;;;;;;13.10;53.31;98239.84;7084320;27;20207;-75
2023/03/26 01:30:11;;;;;;;5.17;2.00;;;;;;;12.91;53.83;98226.63;7083858;27;20566;-75
2023/03/26 01:33:36;;;;;;;2.93;2.40;;;;;;;13.01;53.38;98226.91;7084200;27;20357;-74
2023/03/26 01:37:04;;;;;;;3.87;2.00;;;;;;;13.26;52.69;98209.38;7084617;27;20600;-76
2023/03/26 01:40:30;;;;;;;4.13;3.37;;;;;;;13.13;53.14;98211.50;7078307;27;20285;-76
2023/03/26 01:43:58;;;;;;;5.63;3.50;;;;;;;13.10;53.08;98201.97;7056297;28;20580;-76
2023/03/26 01:47:20;;;;;;;2.63;2.20;;;;;;;12.91;53.21;98205.81;7056448;27;20197;-76
2023/03/26 01:50:42;;;;;;;4.63;2.30;;;;;;;13.28;52.51;98196.41;7079512;27;20207;-76
2023/03/26 01:54:07;;;;;;;6.77;2.60;;;;;;;13.38;51.85;98185.81;7084336;27;20288;-76
2023/03/26 01:57:35;;;;;;;3.00;2.03;;;;;;;13.34;52.29;98190.06;7084370;27;20264;-76
2023/03/26 02:01:07;;;;;;;3.60;2.50;;;;;;;13.43;51.83;98169.69;7083546;27;20674;-76
2023/03/26 02:04:33;;;;;;;7.40;2.47;;;;;;;13.34;51.51;98173.81;7083733;27;20293;-76
2023/03/26 02:08:00;;;;;;;3.10;2.20;;;;;;;13.60;51.45;98157.06;7083912;27;20240;-76
2023/03/26 02:11:21;;;;;;;3.90;2.30;;;;;;;13.53;51.34;98150.13;7082530;27;20673;-76
2023/03/26 02:14:43;;;;;;;5.13;2.70;;;;;;;13.35;51.97;98137.56;7083292;27;20263;-76
2023/03/26 02:18:09;;;;;;;6.63;2.40;;;;;;;13.32;51.73;98145.31;7083335;27;20543;-76
2023/03/26 02:21:32;;;;;;;4.33;2.20;;;;;;;13.34;51.65;98124.28;7082360;27;20573;-76
2023/03/26 02:24:54;;;;;;;2.20;2.00;;;;;;;12.89;52.10;98079.94;7083293;27;20209;-76
2023/03/26 02:28:16;;;;;;;4.33;1.90;;;;;;;13.46;51.26;98112.31;7079935;27;20295;-76
2023/03/26 02:31:37;;;;;;;3.87;2.23;;;;;;;13.42;51.36;98115.75;7053519;28;20221;-76
2023/03/26 02:35:00;;;;;;;7.77;2.83;;;;;;;13.52;51.05;98111.38;7054331;28;20204;-77
2023/03/26 02:38:25;;;;;;;3.80;2.23;;;;;;;13.60;51.01;98110.16;7054155;28;20204;-78
2023/03/26 02:41:46;;;;;;;4.53;2.30;;;;;;;13.69;50.77;98101.41;7053694;28;20227;-78
2023/03/26 02:45:08;;;;;;;2.13;1.90;;;;;;;13.42;51.49;98100.34;7054356;28;20204;-78
2023/03/26 02:48:30;;;;;;;6.40;2.30;;;;;;;13.80;50.30;98107.88;7054283;28;20200;-78
2023/03/26 02:51:55;;;;;;;4.33;2.43;;;;;;;13.19;51.75;98099.56;7053195;28;20292;-76
2023/03/26 02:55:16;;;;;;;6.77;2.37;;;;;;;13.38;51.42;98099.19;7054256;28;20721;-76
2023/03/26 02:58:38;;;;;;;4.80;2.53;;;;;;;13.85;50.00;98084.38;7053821;28;20207;-76
2023/03/26 03:01:59;;;;;;;4.17;2.30;;;;;;;13.68;50.27;98090.84;7052644;28;20233;-76
2023/03/26 03:05:25;;;;;;;4.53;2.90;;;;;;;13.79;49.74;98087.22;7053422;28;20216;-77
2023/03/26 03:08:48;;;;;;;11.90;7.43;;;;;;;13.74;50.08;98084.47;7053280;28;20583;-76
2023/03/26 03:12:10;;;;;;;7.00;3.63;;;;;;;13.50;50.64;98075.59;7052379;28;20803;-76
2023/03/26 03:15:31;;;;;;;3.90;2.40;;;;;;;13.73;50.32;98059.25;7053700;28;20210;-76
2023/03/26 03:18:55;;;;;;;3.93;2.17;;;;;;;13.14;51.19;98026.38;7053442;28;20216;-76
2023/03/26 03:22:16;;;;;;;4.47;2.20;;;;;;;13.32;51.34;98043.28;7051977;28;20599;-78
2023/03/26 03:25:40;;;;;;;3.30;2.17;;;;;;;13.58;50.75;98039.97;7053191;28;20658;-76
2023/03/26 03:29:01;;;;;;;4.43;2.10;;;;;;;13.82;50.29;98036.13;7069519;27;20212;-76
2023/03/26 03:32:23;;;;;;;5.20;2.10;;;;;;;13.87;49.74;98032.66;7052157;28;20225;-78
2023/03/26 03:35:44;;;;;;;6.43;2.60;;;;;;;13.62;50.50;98037.63;7052443;28;20260;-76
2023/03/26 03:39:06;;;;;;;6.47;2.30;;;;;;;13.87;49.70;98022.63;7052626;28;20338;-76
2023/03/26 03:42:29;;;;;;;4.77;2.17;;;;;;;13.03;51.91;98017.25;7051874;28;20290;-76
2023/03/26 03:45:50;;;;;;;4.27;2.10;;;;;;;13.45;51.42;98009.69;7052600;28;20208;-77
2023/03/26 03:49:11;;;;;;;5.20;2.10;;;;;;;13.63;50.22;98004.88;7052438;28;20208;-76
2023/03/26 03:52:33;;;;;;;4.83;2.73;;;;;;;13.83;49.95;98007.13;7051374;28;20230;-76
2023/03/26 03:55:56;;;;;;;5.80;2.30;;;;;;;13.64;50.36;98001.09;7052628;28;20262;-76
2023/03/26 03:59:19;;;;;;;3.57;2.30;;;;;;;13.77;50.47;97989.13;7057509;27;20335;-76
2023/03/26 04:02:41;;;;;;;5.77;2.23;;;;;;;13.88;50.05;97994.50;7079775;27;20681;-76
2023/03/26 04:06:05;;;;;;;5.60;2.57;;;;;;;13.65;50.72;97989.22;7080593;27;20574;-77
2023/03/26 04:09:27;;;;;;;3.73;2.00;;;;;;;14.02;50.03;97989.56;7080582;27;20192;-80
2023/03/26 04:12:48;;;;;;;7.03;2.30;;;;;;;14.16;49.38;97985.47;7079696;27;20277;-77
2023/03/26 04:16:11;;;;;;;7.53;2.47;;;;;;;14.00;49.29;97983.56;7079339;27;20268;-77
2023/03/26 04:19:33;;;;;;;6.47;2.60;;;;;;;13.88;50.03;97971.97;7079299;27;20744;-77
2023/03/26 04:22:55;;;;;;;6.40;2.20;;;;;;;13.78;50.59;97969.09;7074473;27;20657;-77
2023/03/26 04:26:18;;;;;;;6.27;2.80;;;;;;;14.10;49.67;97970.97;7079895;28;20207;-77
2023/03/26 04:29:41;;;;;;;5.33;2.20;;;;;;;14.05;49.76;97946.50;7074001;28;20204;-77
2023/03/26 04:33:05;;;;;;;6.03;2.10;;;;;;;13.75;50.03;97940.59;7079735;27;20591;-77
2023/03/26 04:36:28;;;;;;;9.00;2.13;;;;;;;13.43;50.78;97928.69;7086279;27;20268;-77
2023/03/26 04:39:49;;;;;;;7.27;2.10;;;;;;;13.86;49.88;97920.75;7085360;27;20425;-78
2023/03/26 04:43:12;;;;;;;6.23;2.30;;;;;;;13.62;50.38;97913.84;7086068;27;20291;-77
2023/03/26 04:46:34;;;;;;;5.27;2.40;;;;;;;13.54;50.31;97913.44;7086677;27;20292;-78
2023/03/26 04:49:57;;;;;;;5.97;2.20;;;;;;;13.80;49.75;97908.19;7085549;27;20575;-78
2023/03/26 04:53:21;;;;;;;4.23;2.40;;;;;;;13.51;49.93;97886.88;7085694;27;20233;-78
2023/03/26 04:56:46;;;;;;;4.80;2.20;;;;;;;13.20;51.39;97900.91;7086304;27;20582;-79
2023/03/26 05:00:13;;;;;;;7.70;2.20;;;;;;;13.35;51.33;97884.97;7085421;27;20297;-78
2023/03/26 05:03:38;;;;;;;4.00;2.37;;;;;;;13.88;50.05;97885.28;7085515;27;20258;-77
2023/03/26 05:07:01;;;;;;;5.17;2.70;;;;;;;14.02;49.66;97876.56;7084531;27;20204;-77
2023/03/26 05:10:22;;;;;;;7.77;2.63;;;;;;;14.15;49.79;97869.97;7084014;27;20236;-77
2023/03/26 05:13:44;;;;;;;5.13;2.40;;;;;;;13.91;50.57;97869.34;7084644;27;20232;-77
2023/03/26 05:17:09;;;;;;;4.27;2.20;;;;;;;13.74;51.54;97886.69;7084309;27;20267;-77
2023/03/26 05:20:31;;;;;;;6.60;2.53;;;;;;;13.81;50.53;97852.94;7083696;27;20575;-77
2023/03/26 05:23:54;;;;;;;6.97;2.50;;;;;;;13.76;50.44;97881.84;7084514;27;20216;-77
2023/03/26 05:27:19;;;;;;;4.47;2.60;;;;;;;13.78;50.79;97877.81;7084107;27;20212;-77
2023/03/26 05:30:41;;;;;;;3.67;2.10;;;;;;;13.70;51.04;97872.78;7083479;27;20214;-77
2023/03/26 05:34:03;;;;;;;7.87;2.73;;;;;;;13.52;51.20;97867.63;7083867;27;20272;-77
2023/03/26 05:37:25;;;;;;;5.63;2.43;;;;;;;13.77;50.47;97861.81;7080971;27;20212;-80
2023/03/26 05:40:47;;;;;;;4.13;2.20;;;;;;;13.87;49.90;97832.97;7070706;27;20343;-77
2023/03/26 05:44:09;;;;;;;5.07;2.50;;;;;;;13.76;50.42;97824.94;7083725;27;20223;-77
2023/03/26 05:47:31;;;;;;;5.27;2.40;;;;;;;13.71;50.52;97841.13;7083419;27;20803;-77
2023/03/26 05:50:53;;;;;;;4.90;2.37;;;;;;;13.78;50.48;97833.66;7083006;27;20569;-77
2023/03/26 05:54:15;;;;;;;6.70;2.20;;;;;;;13.99;50.16;97824.75;7083576;27;20228;-77
2023/03/26 05:57:38;;;;;;;3.90;2.10;;;;;;;14.01;49.23;97812.59;7083428;27;20213;-77
2023/03/26 06:01:01;;;;;;;3.73;2.70;;;;;;;13.16;52.60;97826.72;7083087;27;20233;-77
2023/03/26 06:04:22;;;;;;;6.63;2.70;;;;;;;13.26;52.36;97821.44;7083738;27;20286;-77
2023/03/26 06:07:44;;;;;;;5.87;2.40;;;;;;;13.05;52.96;97812.16;7083651;27;20200;-77
2023/03/26 06:11:07;;;;;;;5.53;2.57;;;;;;;13.27;51.78;97804.16;7082261;27;20203;-77
2023/03/26 06:14:30;;;;;;;8.77;3.70;;;;;;;13.56;49.84;97817.34;7083617;27;20228;-77
2023/03/26 06:17:51;;;;;;;8.97;2.80;;;;;;;13.51;50.71;97811.84;7083174;27;20349;-77
2023/03/26 06:21:13;;;;;;;6.37;2.27;;;;;;;13.58;49.63;97788.09;7082330;27;20764;-77
2023/03/26 06:24:34;;;;;;;6.17;2.77;;;;;;;13.99;48.32;97776.75;7082335;27;20338;-78
2023/03/26 06:27:56;;;;;;;3.27;1.90;;;;;;;14.32;47.35;97773.13;7083352;27;20607;-77
2023/03/26 06:31:18;;;;;;;4.53;2.53;;;;;;;14.44;46.05;97758.38;7062942;27;20238;-80
2023/03/26 06:34:40;;;;;;;4.73;2.90;;;;;;;14.21;47.49;97741.59;7072998;27;20211;-78
2023/03/26 06:38:02;;;;;;;4.57;2.50;;;;;;;14.32;47.68;97737.88;7078267;27;20209;-78
2023/03/26 06:41:23;;;;;;;5.80;2.50;;;;;;;14.53;47.74;97739.75;7082280;27;20761;-77
2023/03/26 06:44:45;;;;;;;6.83;3.43;;;;;;;14.39;48.96;97735.81;7081178;27;20204;-78
2023/03/26 06:48:08;;;;;;;8.93;2.67;;;;;;;14.04;50.53;97732.66;7063120;27;20260;-78
2023/03/26 06:51:30;;;;;;;9.60;4.70;;;;;;;13.84;52.08;97732.41;7063266;27;20221;-77
2023/03/26 06:54:51;;;;;;;5.43;3.13;;;;;;;13.91;51.78;97720.31;7081630;27;20210;-77
2023/03/26 06:58:13;;;;;;;5.73;3.13;;;;;;;13.75;52.52;97721.19;7079869;27;20574;-77
2023/03/26 07:01:34;;;;;;;5.70;2.97;;;;;;;13.66;53.22;97717.28;7080805;27;20626;-77
2023/03/26 07:04:58;;;;;;;2.87;2.40;;;;;;;13.47;53.75;97725.94;7081646;27;20241;-77
2023/03/26 07:08:20;;;;;;;4.30;2.30;;;;;;;13.26;54.70;97714.00;7081067;27;20779;-77
2023/03/26 07:11:41;;;;;;;5.37;2.33;;;;;;;13.40;54.29;97717.19;7078920;27;20294;-77
2023/03/26 07:15:04;;;;;;;9.13;3.47;;;;;;;13.41;54.19;97705.28;7053172;28;20205;-77
2023/03/26 07:18:25;;;;;;;6.40;2.57;;;;;;;13.58;53.76;97696.03;7052780;28;20210;-77
2023/03/26 07:21:49;;;;;;;7.53;2.70;;;;;;;13.68;52.97;97684.53;7052137;28;20650;-76
2023/03/26 07:25:12;;;;;;;3.57;2.40;;;;;;;13.75;52.50;97677.03;7052702;28;20673;-77
2023/03/26 07:28:38;;;;;;;4.90;2.67;;;;;;;13.82;52.02;97675.78;7052644;28;20548;-76
2023/03/26 07:32:05;;;;;;;4.27;2.90;;;;;;;13.90;51.85;97678.03;7051331;28;20221;-77
2023/03/26 07:35:31;;;;;;;6.43;3.37;;;;;;;14.05;51.01;97661.94;7052235;28;20216;-77
2023/03/26 07:39:05;;;;;;;8.37;3.60;;;;;;;14.13;51.67;97656.06;7072043;27;20196;-77
2023/03/26 07:42:35;;;;;;;8.33;3.43;;;;;;;14.21;51.12;97661.06;7079805;27;20707;-77
2023/03/26 07:45:57;;;;;;;7.67;3.13;;;;;;;14.39;50.82;97644.44;7080272;27;20205;-77
2023/03/26 07:49:19;;;;;;;5.00;2.60;;;;;;;14.15;51.30;97645.78;7079134;27;20268;-77
2023/03/26 07:52:41;;;;;;;8.13;2.80;;;;;;;13.98;52.20;97641.53;7079402;27;20247;-77
2023/03/26 07:56:07;;;;;;;4.47;3.23;;;;;;;13.98;52.17;97652.38;7081903;27;20285;-78
2023/03/26 07:59:31;;;;;;;5.83;2.97;;;;;;;14.30;51.16;97635.13;7082043;27;20203;-77
2023/03/26 08:03:22;;;;;;;4.67;2.60;;;;;;;14.19;51.15;97636.09;7072671;27;20277;-77
2023/03/26 08:06:49;;;;;;;4.83;2.80;;;;;;;14.02;52.72;97635.34;7064177;27;20196;-77
2023/03/26 08:10:16;;;;;;;3.90;2.37;;;;;;;14.09;51.56;97606.16;7079353;27;20629;-78
2023/03/26 08:13:48;;;;;;;4.87;2.67;;;;;;;14.21;52.11;97611.47;7080051;27;20572;-77
2023/03/26 08:17:11;;;;;;;4.57;2.60;;;;;;;14.11;52.52;97614.84;7079798;27;20198;-77
2023/03/26 08:20:40;;;;;;;5.03;2.53;;;;;;;14.21;52.66;97614.19;7078797;27;20203;-77
2023/03/26 08:24:05;;;;;;;6.03;2.73;;;;;;;14.27;52.71;97616.66;7079507;28;20712;-77
2023/03/26 08:27:33;;;;;;;6.50;2.70;;;;;;;14.25;53.29;97623.41;7079685;28;20195;-77
2023/03/26 08:30:56;;;;;;;5.93;2.80;;;;;;;13.80;54.61;97587.72;7078935;28;20203;-76
2023/03/26 08:34:18;;;;;;;6.97;2.70;;;;;;;13.53;55.47;97598.50;7076066;28;20309;-76
2023/03/26 08:37:39;;;;;;;5.70;2.60;;;;;;;13.88;55.09;97588.06;7062999;28;20290;-76
2023/03/26 08:41:29;;;;;;;4.43;2.50;;;;;;;13.75;56.00;97582.22;7078458;28;20211;-76
2023/03/26 08:45:29;;;;;;;4.77;2.53;;;;;;;13.85;56.12;97576.91;7078653;28;20283;-76
2023/03/26 08:49:21;;;;;;;10.80;3.80;;;;;;;13.26;57.69;97573.25;7053059;28;20741;-76
2023/03/26 08:53:02;;;;;;;5.40;2.53;;;;;;;13.59;57.73;97566.88;7078339;28;20283;-76
2023/03/26 08:56:27;;;;;;;6.33;2.70;;;;;;;13.41;57.82;97545.56;7079175;28;20344;-76
2023/03/26 09:00:25;;;;;;;6.67;3.80;;;;;;;13.75;58.19;97557.84;7078386;28;20234;-76
2023/03/26 09:04:09;;;;;;;7.97;3.97;;;;;;;13.74;58.81;97551.59;7002282;28;20241;-76
2023/03/26 09:07:54;;;;;;;6.77;3.20;;;;;;;13.65;58.99;97569.41;7079118;28;20206;-76
2023/03/26 09:11:26;;;;;;;6.37;2.90;;;;;;;14.06;57.97;97554.34;7078413;28;20249;-77
2023/03/26 09:15:07;;;;;;;5.40;2.73;;;;;;;14.15;57.78;97550.13;7079159;28;20291;-76
2023/03/26 09:19:07;;;;;;;6.33;2.40;;;;;;;13.79;58.55;97553.53;7078777;28;20581;-76
2023/03/26 09:22:42;;;;;;;2.60;2.30;;;;;;;13.71;59.32;97565.69;7082016;27;20314;-76
2023/03/26 09:26:26;;;;;;;9.23;2.93;;;;;;;13.88;58.80;97555.56;7083884;27;20248;-76
2023/03/26 09:30:14;;;;;;;4.53;2.40;;;;;;;13.70;59.58;97569.44;7080646;27;20208;-77
2023/03/26 09:33:58;;;;;;;4.80;2.30;;;;;;;13.86;58.87;97562.31;7085507;27;20284;-76
2023/03/26 09:37:26;;;;;;;3.13;2.40;;;;;;;13.98;57.63;97563.75;7075300;27;20272;-76
2023/03/26 09:40:55;;;;;;;3.03;2.17;;;;;;;14.33;57.35;97552.47;7081692;27;20202;-76
2023/03/26 09:44:32;;;;;;;4.00;2.10;;;;;;;14.32;57.09;97559.78;7083444;27;20231;-76
2023/03/26 09:48:18;;;;;;;5.20;2.50;;;;;;;14.32;57.53;97550.81;7083274;27;20623;-76
2023/03/26 09:51:58;;;;;;;3.93;2.20;;;;;;;14.59;55.79;97538.00;7082420;27;20704;-76
2023/03/26 09:55:34;;;;;;;4.73;2.77;;;;;;;14.94;55.03;97551.78;7080213;27;20221;-76
2023/03/26 09:59:22;;;;;;;4.67;2.13;;;;;;;14.82;56.28;97541.13;7077641;27;20206;-76
2023/03/26 10:02:59;;;;;;;4.60;2.33;;;;;;;15.53;53.99;97531.44;7079307;27;20700;-76
2023/03/26 10:06:37;;;;;;;4.40;2.27;;;;;;;16.13;52.69;97540.53;7083188;27;20210;-76
2023/03/26 10:10:01;;;;;;;2.87;2.17;;;;;;;16.42;51.46;97530.78;7078074;27;20252;-76
2023/03/26 10:13:28;;;;;;;2.10;1.90;;;;;;;16.84;50.32;97520.38;7064370;27;20230;-77
2023/03/26 10:17:00;;;;;;;2.40;1.63;;;;;;;16.62;49.77;97538.09;7082376;27;20206;-76
2023/03/26 10:20:34;;;;;;;4.03;2.10;;;;;;;16.32;50.32;97516.31;7082002;27;20203;-77
2023/03/26 10:24:10;;;;;;;5.67;3.50;;;;;;;16.15;51.04;97518.53;7082681;27;20611;-77
2023/03/26 10:27:39;;;;;;;2.60;2.40;;;;;;;16.95;50.13;97523.91;7082339;27;20597;-75
2023/03/26 10:31:08;;;;;;;7.90;5.37;;;;;;;16.91;48.29;97515.47;7079050;27;20202;-76
2023/03/26 10:34:45;;;;;;;6.57;4.30;;;;;;;17.15;48.14;97527.38;7082189;27;20279;-78
2023/03/26 10:38:16;;;;;;;9.33;5.20;;;;;;;16.78;46.98;97518.78;7085712;27;20190;-77
2023/03/26 10:41:43;;;;;;;12.43;8.27;;;;;;;17.03;47.32;97518.69;7083573;27;20230;-81
2023/03/26 10:45:35;;;;;;;4.30;2.80;;;;;;;16.08;47.95;97512.53;7083036;27;20214;-76
2023/03/26 10:49:12;;;;;;;6.90;4.83;;;;;;;16.92;45.44;97508.94;7061484;27;20209;-77
2023/03/26 10:52:38;;;;;;;16.10;9.80;;;;;;;17.01;45.24;97518.19;7081491;27;20231;-77
2023/03/26 10:56:06;;;;;;;39.33;17.90;;;;;;;16.54;44.63;97519.63;7079036;27;20275;-78
2023/03/26 10:59:29;;;;;;;5.43;3.70;;;;;;;16.96;44.33;97520.06;7053353;28;20199;-78
2023/03/26 11:03:08;;;;;;;7.20;1.90;;;;;;;17.62;44.13;97526.91;7058491;27;20220;-77
2023/03/26 11:06:34;;;;;;;2.77;1.90;;;;;;;18.04;43.00;97533.50;7081822;27;20195;-76
2023/03/26 11:10:01;;;;;;;1.70;1.60;;;;;;;17.25;43.21;97543.69;7081224;27;20196;-76
2023/03/26 11:13:34;;;;;;;2.47;1.57;;;;;;;18.24;40.96;97519.72;7081038;27;20261;-77
2023/03/26 11:17:01;;;;;;;1.83;1.40;;;;;;;18.08;39.25;97518.19;7081570;27;20188;-78
2023/03/26 11:20:29;;;;;;;4.13;1.93;;;;;;;17.60;38.53;97526.41;7081171;27;20686;-77
2023/03/26 11:23:59;;;;;;;2.47;2.20;;;;;;;17.46;38.61;97479.06;7080332;27;20223;-76
2023/03/26 11:27:27;;;;;;;2.33;1.57;;;;;;;18.44;37.52;97505.09;7081343;27;20257;-77
2023/03/26 11:30:54;;;;;;;1.70;1.50;;;;;;;19.09;37.26;97496.25;7080813;27;20248;-78
2023/03/26 11:34:17;;;;;;;2.30;1.80;;;;;;;18.86;35.53;97477.94;7080832;27;20227;-77
2023/03/26 11:37:41;;;;;;;3.60;1.87;;;;;;;19.50;34.04;97486.47;7081206;27;20614;-80
2023/03/26 11:41:04;;;;;;;1.40;1.20;;;;;;;18.90;32.80;97492.63;7082065;27;20298;-81
2023/03/26 11:44:29;;;;;;;4.50;2.80;;;;;;;19.41;33.34;97483.56;7084431;27;20233;-81
2023/03/26 11:47:53;;;;;;;4.90;3.27;;;;;;;19.72;33.13;97473.03;7087091;27;20291;-83
2023/03/26 11:51:19;;;;;;;3.77;2.27;;;;;;;20.11;33.48;97490.00;7086089;27;20262;-83
2023/03/26 11:54:42;;;;;;;2.87;2.57;;;;;;;19.55;33.59;97470.00;7087487;27;20200;-81
2023/03/26 11:58:04;;;;;;;1.97;1.33;;;;;;;19.41;34.70;97453.50;7088769;27;20290;-82
2023/03/26 12:01:29;;;;;;;2.00;1.40;;;;;;;19.53;34.00;97461.28;7087340;27;20204;-81
2023/03/26 12:04:54;;;;;;;2.20;1.20;;;;;;;19.61;33.26;97474.28;7088817;27;20365;-82
2023/03/26 12:08:21;;;;;;;2.47;1.60;;;;;;;19.60;31.65;97446.16;7092824;27;20236;-82
2023/03/26 12:11:44;;;;;;;3.00;1.50;;;;;;;19.64;31.23;97457.31;7085927;27;20268;-83
2023/03/26 12:15:12;;;;;;;1.57;1.47;;;;;;;18.58;32.77;97435.91;7065727;28;20744;-81
2023/03/26 12:18:38;;;;;;;1.50;1.40;;;;;;;18.75;32.78;97425.34;7067633;28;20180;-84
2023/03/26 12:22:00;;;;;;;2.97;1.63;;;;;;;19.03;33.28;97461.88;7060602;28;20228;-80
2023/03/26 12:25:22;;;;;;;2.07;1.13;;;;;;;18.45;34.30;97439.31;7052517;28;20280;-78
2023/03/26 12:28:45;;;;;;;3.00;1.70;;;;;;;18.67;33.44;97485.22;7051916;28;20243;-79
2023/03/26 12:32:12;;;;;;;2.50;1.90;;;;;;;17.39;39.78;97501.16;7052896;28;20212;-79
2023/03/26 12:35:35;;;;;;;1.93;1.77;;;;;;;16.86;42.67;97499.13;7057956;28;20724;-82
2023/03/26 12:38:57;;;;;;;2.70;1.70;;;;;;;16.67;46.21;97487.22;7059718;28;20200;-79
2023/03/26 12:42:27;;;;;;;2.37;1.80;;;;;;;16.89;46.50;97482.28;7051015;28;20232;-79
2023/03/26 12:45:50;;;;;;;1.70;1.60;;;;;;;17.08;48.45;97479.72;7052833;28;20357;-79
2023/03/26 12:49:12;;;;;;;1.50;1.40;;;;;;;17.45;45.42;97474.72;7078831;28;20215;-79
2023/03/26 12:52:55;;;;;;;2.60;1.37;;;;;;;17.81;44.01;97459.75;7077831;28;20651;-80
2023/03/26 12:56:20;;;;;;;2.07;1.67;;;;;;;17.85;42.91;97461.63;7081666;27;20187;-79
2023/03/26 12:59:50;;;;;;;3.33;1.63;;;;;;;17.96;41.93;97465.09;7058566;27;20200;-79
2023/03/26 13:03:20;;;;;;;3.30;2.40;;;;;;;17.26;44.17;97469.03;7056066;28;20232;-80
2023/03/26 13:06:44;;;;;;;2.00;1.83;;;;;;;16.91;45.75;97465.63;7056859;28;20349;-79
2023/03/26 13:10:26;;;;;;;1.70;1.60;;;;;;;17.09;44.53;97445.97;7054860;28;20575;-79
2023/03/26 13:14:00;;;;;;;4.17;2.20;;;;;;;17.49;43.74;97434.88;7057062;27;20240;-80
2023/03/26 13:17:27;;;;;;;2.83;1.70;;;;;;;17.38;43.56;97423.25;7089838;27;20634;-83
2023/03/26 13:20:50;;;;;;;4.97;1.80;;;;;;;18.77;43.82;97425.06;7076895;27;20197;-83
2023/03/26 13:24:23;;;;;;;3.57;1.70;;;;;;;18.53;41.79;97413.31;7064586;28;20248;-83
2023/03/26 13:27:51;;;;;;;2.03;1.60;;;;;;;19.26;39.12;97396.34;7064890;28;20256;-83
2023/03/26 13:31:18;;;;;;;3.30;2.20;;;;;;;18.76;40.54;97409.78;7078272;27;20223;-82
2023/03/26 13:34:52;;;;;;;2.30;1.63;;;;;;;19.00;37.82;97399.66;7091331;27;20647;-82
2023/03/26 13:38:17;;;;;;;2.33;1.30;;;;;;;19.36;37.31;97395.38;7088582;27;20294;-82
2023/03/26 13:41:52;;;;;;;1.97;1.87;;;;;;;18.84;37.54;97395.47;7083467;27;20224;-79
2023/03/26 13:45:26;;;;;;;2.27;1.63;;;;;;;18.52;38.26;97400.78;7083922;27;20234;-80
2023/03/26 13:48:51;;;;;;;1.93;1.57;;;;;;;18.39;38.29;97393.28;7082195;27;20195;-79
2023/03/26 13:52:18;;;;;;;3.00;1.90;;;;;;;18.29;38.60;97383.22;7082769;27;20243;-78
2023/03/26 13:55:41;;;;;;;2.93;1.87;;;;;;;18.15;38.27;97379.56;7083939;27;20690;-79
2023/03/26 13:59:07;;;;;;;3.63;1.90;;;;;;;18.50;37.83;97378.41;7084607;27;20271;-79
2023/03/26 14:02:33;;;;;;;5.27;2.23;;;;;;;18.95;37.35;97370.50;7083111;27;20627;-81
2023/03/26 14:05:57;;;;;;;3.77;2.07;;;;;;;18.56;38.53;97355.41;7082794;27;20200;-78
2023/03/26 14:09:23;;;;;;;4.83;2.37;;;;;;;18.78;37.85;97366.63;7083339;27;20663;-78
2023/03/26 14:12:50;;;;;;;2.60;2.30;;;;;;;18.71;37.56;97357.97;7084133;27;20227;-78
2023/03/26 14:16:15;;;;;;;4.40;2.20;;;;;;;18.43;38.10;97356.09;7084728;27;20217;-78
2023/03/26 14:19:55;;;;;;;5.23;2.00;;;;;;;18.60;37.99;97342.81;7082474;27;20191;-79
2023/03/26 14:23:25;;;;;;;2.17;1.70;;;;;;;18.05;37.70;97343.41;7083067;27;20290;-79
2023/03/26 14:27:02;;;;;;;4.80;1.90;;;;;;;17.68;38.30;97345.94;7083788;27;20705;-80
2023/03/26 14:30:47;;;;;;;4.13;2.50;;;;;;;17.82;39.28;97350.41;7083644;27;20642;-79
2023/03/26 14:34:28;;;;;;;4.17;2.10;;;;;;;18.22;38.37;97351.94;7075305;27;20216;-78
2023/03/26 14:38:20;;;;;;;5.10;1.90;;;;;;;17.91;39.24;97365.06;7081955;27;20191;-79
2023/03/26 14:41:47;;;;;;;4.03;1.80;;;;;;;18.08;38.66;97365.44;7050366;28;20265;-79
2023/03/26 14:45:27;;;;;;;2.80;2.00;;;;;;;17.93;39.25;97367.50;7054289;28;20231;-79
2023/03/26 14:49:25;;;;;;;2.03;1.90;;;;;;;17.28;42.91;97422.47;7069672;27;20197;-79
2023/03/26 14:52:48;;;;;;;3.23;1.77;;;;;;;15.46;47.22;97424.97;7072212;27;20299;-79
2023/03/26 14:56:51;;;;;;;3.07;1.70;;;;;;;15.09;49.30;97443.28;7082116;27;20269;-79
2023/03/26 15:00:41;;;;;;;1.43;1.33;;;;;;;14.17;51.48;97453.88;7051779;27;20283;-81
2023/03/26 15:04:37;;;;;;;1.90;1.70;;;;;;;13.52;55.00;97452.53;7055327;28;20231;-80
2023/03/26 15:08:24;;;;;;;1.60;1.50;;;;;;;13.66;54.80;97459.16;7054620;28;20218;-78
2023/03/26 15:11:51;;;;;;;2.00;1.37;;;;;;;14.00;54.64;97460.53;7053515;28;20233;-80
2023/03/26 15:16:00;;;;;;;1.60;1.50;;;;;;;14.04;54.24;97464.38;7055532;28;20703;-78
2023/03/26 15:19:55;;;;;;;3.00;1.97;;;;;;;14.59;54.51;97456.63;7054191;28;20212;-80
2023/03/26 15:23:49;;;;;;;2.27;2.00;;;;;;;14.67;54.19;97481.38;7008695;28;20686;-78
2023/03/26 15:27:48;;;;;;;1.70;1.60;;;;;;;15.46;50.92;97457.56;7055484;28;20622;-79
2023/03/26 15:31:42;;;;;;;2.00;1.80;;;;;;;14.63;51.21;97457.75;7052324;28;20254;-78
2023/03/26 15:35:32;;;;;;;2.07;1.87;;;;;;;14.29;52.87;97472.72;7057941;27;20201;-80
2023/03/26 15:39:24;;;;;;;4.40;4.00;;;;;;;14.31;51.89;97476.81;7052161;28;20332;-79
2023/03/26 15:42:54;;;;;;;2.67;2.43;;;;;;;14.23;52.22;97425.78;7048989;28;20232;-79
2023/03/26 15:46:31;;;;;;;2.90;1.90;;;;;;;14.20;53.29;97488.66;7052412;28;20189;-78
2023/03/26 15:49:57;;;;;;;2.70;1.60;;;;;;;13.52;53.61;97480.41;7051949;28;20207;-78
2023/03/26 15:53:27;;;;;;;1.70;1.50;;;;;;;13.63;53.42;97494.91;7051983;28;20269;-79
2023/03/26 15:57:03;;;;;;;1.50;1.40;;;;;;;13.29;54.19;97475.28;7051829;27;22023;-78
2023/03/26 16:00:27;;;;;;;1.10;1.10;;;;;;;13.37;54.06;97484.84;7059126;27;20262;-78
2023/03/26 16:04:00;;;;;;;1.53;1.43;;;;;;;13.60;53.45;97498.94;7061403;27;20693;-79
2023/03/26 16:07:37;;;;;;;1.20;1.10;;;;;;;13.52;53.64;97482.31;7057997;27;20278;-78
2023/03/26 16:11:06;;;;;;;1.70;1.60;;;;;;;14.13;52.18;97462.81;7050822;28;20342;-78
2023/03/26 16:14:42;;;;;;;1.80;1.70;;;;;;;13.87;53.40;97483.47;7051249;28;20219;-77
2023/03/26 16:18:21;;;;;;;1.03;1.03;;;;;;;13.85;52.90;97484.78;7051901;28;20292;-78
2023/03/26 16:21:54;;;;;;;1.50;1.40;;;;;;;14.29;51.12;97462.66;7056021;28;20229;-78